createdAt,value
2019-01-23T00:01:20.337Z,82.48
2019-01-23T00:11:11.598Z,82.77
2019-01-23T00:33:18.839Z,83.27
2019-01-23T00:43:12.294Z,83.47
2019-01-23T00:59:59.125Z,83.76
2019-01-23T01:12:57.667Z,84.08
2019-01-23T01:43:12.439Z,85.14
2019-01-23T01:57:00.957Z,85.77
2019-01-23T02:07:18.280Z,86.11
2019-01-23T02:10:10.946Z,85.96
2019-01-23T02:15:56.158Z,85.95
2019-01-23T02:22:56.636Z,86.01
2019-01-23T02:32:21.017Z,86.13
2019-01-23T02:34:49.918Z,85.88
2019-01-23T02:37:18.736Z,86.07
2019-01-23T02:39:47.634Z,85.98
2019-01-23T02:42:16.956Z,86.22
2019-01-23T02:44:45.808Z,86.34
2019-01-23T02:47:14.631Z,86.17
2019-01-23T02:49:43.667Z,86.05
2019-01-23T02:52:12.801Z,86.06
2019-01-23T02:54:41.649Z,86.07
2019-01-23T02:57:10.823Z,86.53
2019-01-23T02:59:39.649Z,86.41
2019-01-23T03:02:08.587Z,86.43
2019-01-23T03:04:37.370Z,86.29
2019-01-23T03:07:06.258Z,86.37
2019-01-23T03:09:35.255Z,86.70
2019-01-23T03:12:04.205Z,86.41
2019-01-23T03:14:33.042Z,86.21
2019-01-23T03:17:02.022Z,86.55
2019-01-23T03:19:30.903Z,86.68
2019-01-23T03:21:59.788Z,86.54
2019-01-23T03:24:28.706Z,86.92
2019-01-23T03:26:57.615Z,87.20
2019-01-23T03:29:26.425Z,86.78
2019-01-23T03:31:55.222Z,86.45
2019-01-23T03:34:24.099Z,86.84
2019-01-23T03:36:53.443Z,86.83
2019-01-23T03:39:22.615Z,86.89
2019-01-23T03:41:51.374Z,86.91
2019-01-23T03:44:20.232Z,86.91
2019-01-23T03:46:49.148Z,87.05
2019-01-23T03:49:17.924Z,86.91
2019-01-23T03:51:46.734Z,87.00
2019-01-23T03:54:15.538Z,87.03
2019-01-23T03:56:44.628Z,86.59
2019-01-23T03:59:13.614Z,87.39
2019-01-23T04:01:42.418Z,86.98
2019-01-23T04:04:11.309Z,86.82
2019-01-23T04:06:40.465Z,86.51
2019-01-23T04:09:09.347Z,86.47
2019-01-23T04:11:38.261Z,86.72
2019-01-23T04:14:07.163Z,86.89
2019-01-23T04:16:35.959Z,86.73
2019-01-23T04:19:04.932Z,87.17
2019-01-23T04:21:33.864Z,87.04
2019-01-23T04:24:02.702Z,86.63
2019-01-23T04:26:31.755Z,86.79
2019-01-23T04:29:00.557Z,86.45
2019-01-23T04:31:29.723Z,86.32
2019-01-23T04:33:58.486Z,86.46
2019-01-23T04:36:27.693Z,86.63
2019-01-23T04:38:56.468Z,86.99
2019-01-23T04:41:26.078Z,87.04
2019-01-23T04:43:55.172Z,87.41
2019-01-23T04:46:24.205Z,87.30
2019-01-23T04:48:53.459Z,87.06
2019-01-23T04:51:41.669Z,86.89
2019-01-23T04:54:14.353Z,86.52
2019-01-23T04:56:43.509Z,87.00
2019-01-23T04:59:12.394Z,86.77
2019-01-23T05:01:41.196Z,87.06
2019-01-23T05:04:10.001Z,87.35
2019-01-23T05:06:39.098Z,87.16
2019-01-23T05:09:09.316Z,87.28
2019-01-23T05:11:38.272Z,86.94
2019-01-23T05:14:07.239Z,87.02
2019-01-23T05:16:36.019Z,86.96
2019-01-23T05:19:05.544Z,87.08
2019-01-23T05:21:34.339Z,87.43
2019-01-23T05:24:03.152Z,87.29
2019-01-23T05:26:32.030Z,87.13
2019-01-23T05:29:00.812Z,86.95
2019-01-23T05:31:29.833Z,86.99
2019-01-23T05:33:58.630Z,87.12
2019-01-23T05:36:27.467Z,86.84
2019-01-23T05:38:56.262Z,86.98
2019-01-23T05:41:25.048Z,86.84
2019-01-23T05:43:53.840Z,86.70
2019-01-23T05:46:23.040Z,86.78
2019-01-23T05:48:52.084Z,86.88
2019-01-23T05:51:20.963Z,86.59
2019-01-23T05:53:49.838Z,86.99
2019-01-23T05:56:18.876Z,87.27
2019-01-23T05:58:47.758Z,86.84
2019-01-23T06:01:16.641Z,86.64
2019-01-23T06:03:45.521Z,86.63
2019-01-23T06:06:14.367Z,86.30
2019-01-23T06:08:43.540Z,86.49
2019-01-23T06:11:12.370Z,86.60
2019-01-23T06:13:41.256Z,87.23
2019-01-23T06:16:10.026Z,86.76
2019-01-23T06:18:38.897Z,86.23
2019-01-23T06:21:07.706Z,86.01
2019-01-23T06:23:36.613Z,86.08
2019-01-23T06:26:05.614Z,86.01
2019-01-23T06:28:34.438Z,85.89
2019-01-23T06:31:03.602Z,85.92
2019-01-23T06:33:32.431Z,86.27
2019-01-23T06:36:01.373Z,86.37
2019-01-23T06:38:30.344Z,86.08
2019-01-23T06:40:59.189Z,86.25
2019-01-23T06:43:27.975Z,86.43
2019-01-23T06:45:57.143Z,86.69
2019-01-23T06:48:26.302Z,86.22
2019-01-23T06:50:55.107Z,86.22
2019-01-23T06:53:24.319Z,86.51
2019-01-23T06:55:53.094Z,86.60
2019-01-23T06:58:22.275Z,86.38
2019-01-23T07:00:51.508Z,85.99
2019-01-23T07:03:20.375Z,86.23
2019-01-23T07:05:49.261Z,86.63
2019-01-23T07:08:18.119Z,86.35
2019-01-23T07:10:47.170Z,86.15
2019-01-23T07:13:15.991Z,85.65
2019-01-23T07:15:44.759Z,85.82
2019-01-23T07:18:14.016Z,85.89
2019-01-23T07:20:43.001Z,85.75
2019-01-23T07:23:12.022Z,85.70
2019-01-23T07:25:40.834Z,85.47
2019-01-23T07:28:09.957Z,85.87
2019-01-23T07:30:41.255Z,85.86
2019-01-23T07:33:10.107Z,85.48
2019-01-23T07:35:38.977Z,85.71
2019-01-23T07:38:07.890Z,85.66
2019-01-23T07:40:36.734Z,85.47
2019-01-23T07:43:05.727Z,85.80
2019-01-23T07:45:34.646Z,85.45
2019-01-23T07:48:03.875Z,84.93
2019-01-23T07:50:32.748Z,85.22
2019-01-23T07:53:01.773Z,85.51
2019-01-23T07:55:30.926Z,85.61
2019-01-23T07:57:59.750Z,85.46
2019-01-23T08:00:31.625Z,85.58
2019-01-23T08:02:59.809Z,85.60
2019-01-23T08:05:28.693Z,85.89
2019-01-23T08:07:57.887Z,85.57
2019-01-23T08:10:27.172Z,85.63
2019-01-23T08:12:56.164Z,85.18
2019-01-23T08:15:30.932Z,85.69
2019-01-23T08:17:59.850Z,85.57
2019-01-23T08:20:29.449Z,85.35
2019-01-23T08:22:58.807Z,85.29
2019-01-23T08:25:27.801Z,85.47
2019-01-23T08:27:57.142Z,85.46
2019-01-23T08:30:26.904Z,85.45
2019-01-23T08:32:55.909Z,85.34
2019-01-23T08:35:25.827Z,85.25
2019-01-23T08:37:55.106Z,85.17
2019-01-23T08:40:24.071Z,85.51
2019-01-23T08:42:53.109Z,85.44
2019-01-23T08:45:22.287Z,85.04
2019-01-23T08:47:51.503Z,85.02
2019-01-23T08:50:34.854Z,85.04
2019-01-23T08:53:03.702Z,84.96
2019-01-23T08:55:32.520Z,84.93
2019-01-23T08:58:01.515Z,85.10
2019-01-23T09:00:30.506Z,84.99
2019-01-23T09:02:59.350Z,84.76
2019-01-23T09:05:28.237Z,84.84
2019-01-23T09:07:57.467Z,84.97
2019-01-23T09:10:26.836Z,84.65
2019-01-23T09:12:56.499Z,84.96
2019-01-23T09:15:25.464Z,85.03
2019-01-23T09:17:54.709Z,85.24
2019-01-23T09:20:23.810Z,84.72
2019-01-23T09:22:52.952Z,84.70
2019-01-23T09:25:23.518Z,85.26
2019-01-23T09:27:52.458Z,84.79
2019-01-23T09:30:31.620Z,84.70
2019-01-23T09:33:31.753Z,84.89
2019-01-23T09:36:26.238Z,84.95
2019-01-23T09:39:32.446Z,84.89
2019-01-23T09:42:44.879Z,84.79
2019-01-23T09:45:40.007Z,84.58
2019-01-23T09:48:29.519Z,84.56
2019-01-23T09:51:45.522Z,84.56
2019-01-23T09:54:15.924Z,84.24
2019-01-23T09:56:47.656Z,84.72
2019-01-23T09:59:16.485Z,84.71
2019-01-23T10:01:45.271Z,84.72
2019-01-23T10:04:14.053Z,84.32
2019-01-23T10:06:43.357Z,84.44
2019-01-23T10:09:12.491Z,84.45
2019-01-23T10:11:41.448Z,83.95
2019-01-23T10:14:10.246Z,83.63
2019-01-23T10:16:39.056Z,83.78
2019-01-23T10:19:07.984Z,84.30
2019-01-23T10:21:37.159Z,83.90
2019-01-23T10:24:06.615Z,83.77
2019-01-23T10:26:35.566Z,84.20
2019-01-23T10:29:04.508Z,84.51
2019-01-23T10:31:33.306Z,83.77
2019-01-23T10:34:02.154Z,83.84
2019-01-23T10:36:31.098Z,83.96
2019-01-23T10:38:59.894Z,83.89
2019-01-23T10:41:28.822Z,83.81
2019-01-23T10:43:57.766Z,83.69
2019-01-23T10:46:26.657Z,83.17
2019-01-23T10:48:55.518Z,83.54
2019-01-23T10:51:24.685Z,83.56
2019-01-23T10:53:53.748Z,83.74
2019-01-23T10:56:22.701Z,83.72
2019-01-23T10:58:51.563Z,83.69
2019-01-23T11:01:20.791Z,83.78
2019-01-23T11:03:49.952Z,83.72
2019-01-23T11:06:19.063Z,83.83
2019-01-23T11:08:47.900Z,83.89
2019-01-23T11:11:16.684Z,83.72
2019-01-23T11:13:45.504Z,83.82
2019-01-23T11:16:14.686Z,83.75
2019-01-23T11:18:43.595Z,83.17
2019-01-23T11:21:12.566Z,83.73
2019-01-23T11:23:41.420Z,83.87
2019-01-23T11:26:10.363Z,83.93
2019-01-23T11:28:39.452Z,83.63
2019-01-23T11:31:08.268Z,83.85
2019-01-23T11:33:37.117Z,83.30
2019-01-23T11:36:06.066Z,83.26
2019-01-23T11:38:34.879Z,83.36
2019-01-23T11:41:03.815Z,83.25
2019-01-23T11:43:32.948Z,83.33
2019-01-23T11:46:01.993Z,83.41
2019-01-23T11:48:30.816Z,83.21
2019-01-23T11:50:59.629Z,83.35
2019-01-23T11:53:28.783Z,83.17
2019-01-23T11:55:57.687Z,83.23
2019-01-23T11:58:26.543Z,83.03
2019-01-23T12:00:55.776Z,83.18
2019-01-23T12:03:24.861Z,82.95
2019-01-23T12:05:53.760Z,82.87
2019-01-23T12:08:22.885Z,82.88
2019-01-23T12:10:51.799Z,82.54
2019-01-23T12:13:20.779Z,82.45
2019-01-23T12:15:49.577Z,82.76
2019-01-23T12:18:18.686Z,82.61
2019-01-23T12:20:47.523Z,82.92
2019-01-23T12:23:16.374Z,82.67
2019-01-23T12:25:45.282Z,82.86
2019-01-23T12:28:14.134Z,83.08
2019-01-23T12:30:43.797Z,82.76
2019-01-23T12:33:12.702Z,82.27
2019-01-23T12:35:41.833Z,82.31
2019-01-23T12:38:10.727Z,82.34
2019-01-23T12:40:39.726Z,82.11
2019-01-23T12:43:08.696Z,81.97
2019-01-23T12:45:37.675Z,82.06
2019-01-23T12:48:06.678Z,82.16
2019-01-23T12:50:35.652Z,81.89
2019-01-23T12:53:04.552Z,82.17
2019-01-23T12:55:33.618Z,82.20
2019-01-23T12:58:02.684Z,81.91
2019-01-23T13:00:31.908Z,82.44
2019-01-23T13:03:01.113Z,81.75
2019-01-23T13:05:30.464Z,81.50
2019-01-23T13:07:59.611Z,81.64
2019-01-23T13:10:29.195Z,81.62
2019-01-23T13:12:58.222Z,81.59
2019-01-23T13:15:27.764Z,81.36
2019-01-23T13:17:57.039Z,81.18
2019-01-23T13:20:26.482Z,80.78
2019-01-23T13:22:55.584Z,80.54
2019-01-23T13:25:26.155Z,80.74
2019-01-23T13:27:55.582Z,80.82
2019-01-23T13:30:25.706Z,80.69
2019-01-23T13:32:55.007Z,80.38
2019-01-23T13:35:26.618Z,80.49
2019-01-23T13:37:55.911Z,80.32
2019-01-23T13:40:27.448Z,80.21
2019-01-23T13:42:56.432Z,80.31
2019-01-23T13:45:25.347Z,80.08
2019-01-23T13:47:54.216Z,80.47
2019-01-23T13:50:23.138Z,79.93
2019-01-23T13:52:52.004Z,80.37
2019-01-23T13:55:21.319Z,80.25
2019-01-23T13:57:50.453Z,79.58
2019-01-23T14:00:24.906Z,79.74
2019-01-23T14:02:54.589Z,79.58
2019-01-23T14:05:23.476Z,79.95
2019-01-23T14:07:52.358Z,79.60
2019-01-23T14:10:21.570Z,79.31
2019-01-23T14:12:50.864Z,79.39
2019-01-23T14:15:22.742Z,79.53
2019-01-23T14:17:51.979Z,79.61
2019-01-23T14:20:20.947Z,79.40
2019-01-23T14:22:49.820Z,79.29
2019-01-23T14:25:19.038Z,79.20
2019-01-23T14:27:48.408Z,79.47
2019-01-23T14:30:23.384Z,79.55
2019-01-23T14:32:52.253Z,79.62
2019-01-23T14:35:21.254Z,79.31
2019-01-23T14:37:50.279Z,79.36
2019-01-23T14:40:19.468Z,79.56
2019-01-23T14:42:48.501Z,79.43
2019-01-23T14:45:18.443Z,79.69
2019-01-23T14:47:47.681Z,79.79
2019-01-23T14:50:16.962Z,79.64
2019-01-23T14:52:47.511Z,79.82
2019-01-23T14:55:16.952Z,80.16
2019-01-23T14:57:45.998Z,79.88
2019-01-23T15:00:19.956Z,79.86
2019-01-23T15:02:48.835Z,79.78
2019-01-23T15:05:17.814Z,79.99
2019-01-23T15:07:46.751Z,79.98
2019-01-23T15:10:21.064Z,79.88
2019-01-23T15:12:49.950Z,80.25
2019-01-23T15:15:19.075Z,80.17
2019-01-23T15:17:48.130Z,80.32
2019-01-23T15:20:19.966Z,80.42
2019-01-23T15:22:48.724Z,80.58
2019-01-23T15:25:17.705Z,80.31
2019-01-23T15:27:46.508Z,80.48
2019-01-23T15:30:16.626Z,80.41
2019-01-23T15:32:45.494Z,80.39
2019-01-23T15:35:14.623Z,80.79
2019-01-23T15:37:43.462Z,81.30
2019-01-23T15:40:15.265Z,80.91
2019-01-23T15:42:44.523Z,80.96
2019-01-23T15:45:13.500Z,80.81
2019-01-23T15:47:42.391Z,81.10
2019-01-23T15:50:14.024Z,80.96
2019-01-23T15:52:43.081Z,80.95
2019-01-23T15:55:13.368Z,81.06
2019-01-23T15:57:42.357Z,80.60
2019-01-23T16:00:18.639Z,80.64
2019-01-23T16:02:48.670Z,80.87
2019-01-23T16:05:17.667Z,80.57
2019-01-23T16:07:46.913Z,80.71
2019-01-23T16:10:18.002Z,81.27
2019-01-23T16:12:47.081Z,80.95
2019-01-23T16:15:19.643Z,80.83
2019-01-23T16:17:48.541Z,80.83
2019-01-23T16:20:17.467Z,81.04
2019-01-23T16:26:32.778Z,81.20
2019-01-23T16:29:01.602Z,81.06
2019-01-23T16:31:30.383Z,81.14
2019-01-23T16:33:59.557Z,81.14
2019-01-23T16:36:28.472Z,80.80
2019-01-23T16:38:57.320Z,80.65
2019-01-23T16:41:26.560Z,80.60
2019-01-23T16:43:55.455Z,80.80
2019-01-23T16:46:24.429Z,80.94
2019-01-23T16:48:53.479Z,80.88
2019-01-23T16:51:22.294Z,80.88
2019-01-23T16:53:51.123Z,80.90
2019-01-23T16:56:20.151Z,80.63
2019-01-23T16:58:49.381Z,81.25
2019-01-23T17:01:18.572Z,81.11
2019-01-23T17:03:47.780Z,80.93
2019-01-23T17:06:16.764Z,80.90
2019-01-23T17:08:45.557Z,81.05
2019-01-23T17:11:14.363Z,81.12
2019-01-23T17:13:43.207Z,81.27
2019-01-23T17:16:12.966Z,81.17
2019-01-23T17:18:41.875Z,81.11
2019-01-23T17:21:13.148Z,80.34
2019-01-23T17:23:42.105Z,81.19
2019-01-23T17:26:11.000Z,81.29
2019-01-23T17:28:40.466Z,80.81
2019-01-23T17:31:09.392Z,80.83
2019-01-23T17:33:38.363Z,81.06
2019-01-23T17:36:07.401Z,81.19
2019-01-23T17:38:36.177Z,81.49
2019-01-23T17:41:05.226Z,81.00
2019-01-23T17:43:35.140Z,81.36
2019-01-23T17:46:03.991Z,81.32
2019-01-23T17:48:32.924Z,81.06
2019-01-23T17:51:01.754Z,80.98
2019-01-23T17:53:30.560Z,81.28
2019-01-23T17:55:59.379Z,81.21
2019-01-23T17:58:28.378Z,80.95
2019-01-23T18:00:58.805Z,80.89
2019-01-23T18:03:28.229Z,81.33
2019-01-23T18:05:57.434Z,81.37
2019-01-23T18:08:26.357Z,81.03
2019-01-23T18:10:55.412Z,81.09
2019-01-23T18:13:30.061Z,81.70
2019-01-23T18:16:17.525Z,81.16
2019-01-23T18:18:46.734Z,81.61
2019-01-23T18:21:15.999Z,81.45
2019-01-23T18:23:45.107Z,81.49
2019-01-23T18:26:14.034Z,81.18
2019-01-23T18:28:42.932Z,81.12
2019-01-23T18:31:38.665Z,81.88
2019-01-23T18:34:40.051Z,81.66
2019-01-23T18:37:22.724Z,82.01
2019-01-23T18:40:20.634Z,81.93
2019-01-23T18:43:34.442Z,81.38
2019-01-23T18:46:37.648Z,81.23
2019-01-23T18:49:48.001Z,81.56
2019-01-23T18:52:17.213Z,81.46
2019-01-23T18:54:46.192Z,81.63
2019-01-23T18:57:18.348Z,81.68
2019-01-23T18:59:47.310Z,82.13
2019-01-23T19:02:16.178Z,81.00
2019-01-23T19:04:45.400Z,80.27
2019-01-23T19:07:14.267Z,80.79
2019-01-23T19:09:43.310Z,80.86
2019-01-23T19:12:12.283Z,81.36
2019-01-23T19:14:41.159Z,81.07
2019-01-23T19:17:10.324Z,80.61
2019-01-23T19:19:39.245Z,80.96
2019-01-23T19:22:08.422Z,81.62
2019-01-23T19:24:37.718Z,81.98
2019-01-23T19:27:06.709Z,81.75
2019-01-23T19:29:35.740Z,81.59
2019-01-23T19:32:04.827Z,81.56
2019-01-23T19:34:33.786Z,81.19
2019-01-23T19:37:02.657Z,81.05
2019-01-23T19:39:31.527Z,80.53
2019-01-23T19:42:00.390Z,81.89
2019-01-23T19:44:29.180Z,81.53
2019-01-23T19:46:58.121Z,82.01
2019-01-23T19:49:27.492Z,81.37
2019-01-23T19:51:56.570Z,81.34
2019-01-23T19:54:27.222Z,81.21
2019-01-23T19:56:56.601Z,80.92
2019-01-23T19:59:26.505Z,81.03
2019-01-23T20:01:55.472Z,80.42
2019-01-23T20:04:24.341Z,81.53
2019-01-23T20:06:53.664Z,81.77
2019-01-23T20:09:22.540Z,80.84
2019-01-23T20:11:51.434Z,80.94
2019-01-23T20:14:20.389Z,81.00
2019-01-23T20:16:50.093Z,80.60
2019-01-23T20:19:18.869Z,80.44
2019-01-23T20:21:47.777Z,79.86
2019-01-23T20:24:16.739Z,79.69
2019-01-23T20:26:45.883Z,80.59
2019-01-23T20:29:14.752Z,80.36
2019-01-23T20:31:43.579Z,80.60
2019-01-23T20:34:12.885Z,80.87
2019-01-23T20:37:03.033Z,80.78
2019-01-23T20:39:31.855Z,80.99
2019-01-23T20:42:00.670Z,80.07
2019-01-23T20:44:29.741Z,80.20
2019-01-23T20:46:59.121Z,80.41
2019-01-23T20:49:28.243Z,80.53
2019-01-23T20:51:57.109Z,80.05
2019-01-23T20:54:26.008Z,80.47
2019-01-23T20:56:55.066Z,81.37
2019-01-23T20:59:24.294Z,81.59
2019-01-23T21:01:53.398Z,81.23
2019-01-23T21:04:22.230Z,81.12
2019-01-23T21:06:51.141Z,81.12
2019-01-23T21:09:19.940Z,81.11
2019-01-23T21:11:49.063Z,80.85
2019-01-23T21:14:17.943Z,80.77
2019-01-23T21:16:46.737Z,81.03
2019-01-23T21:19:15.511Z,80.55
2019-01-23T21:21:44.622Z,80.56
2019-01-23T21:24:13.416Z,80.29
2019-01-23T21:26:42.327Z,80.28
2019-01-23T21:29:11.219Z,80.34
2019-01-23T21:31:40.263Z,80.42
2019-01-23T21:34:09.599Z,80.65
2019-01-23T21:36:38.490Z,80.72
2019-01-23T21:39:37.148Z,80.68
2019-01-23T21:42:06.279Z,80.86
2019-01-23T21:44:35.105Z,81.20
2019-01-23T21:47:04.373Z,81.37
2019-01-23T21:49:33.228Z,81.92
2019-01-23T21:52:02.143Z,82.64
2019-01-23T21:54:38.789Z,82.99
2019-01-23T21:57:07.640Z,84.08
2019-01-23T21:59:36.468Z,84.63
2019-01-23T22:02:05.925Z,84.99
2019-01-23T22:04:35.028Z,85.19
2019-01-23T22:07:03.912Z,85.04
2019-01-23T22:09:32.949Z,85.24
2019-01-23T22:12:01.918Z,85.43
2019-01-23T22:14:31.128Z,86.07
2019-01-23T22:17:00.287Z,86.50
2019-01-23T22:19:29.399Z,86.32
2019-01-23T22:21:58.248Z,86.65
2019-01-23T22:24:27.389Z,86.66
2019-01-23T22:26:56.306Z,86.69
2019-01-23T22:29:25.269Z,86.77
2019-01-23T22:31:54.674Z,86.98
2019-01-23T22:34:23.657Z,86.65
2019-01-23T22:36:57.119Z,86.88
2019-01-23T22:39:28.618Z,86.63
2019-01-23T22:42:12.406Z,86.45
2019-01-23T23:01:30.848Z,86.85
2019-01-23T23:04:03.373Z,86.87
2019-01-23T23:06:31.551Z,86.84
2019-01-23T23:09:00.359Z,86.77
2019-01-23T23:11:29.181Z,86.58
2019-01-23T23:13:57.978Z,86.86
2019-01-23T23:16:26.796Z,86.93
2019-01-23T23:18:55.600Z,86.67
2019-01-23T23:21:24.458Z,87.01
2019-01-23T23:23:53.224Z,86.55
2019-01-23T23:26:22.035Z,87.03
2019-01-23T23:28:50.840Z,86.84
2019-01-23T23:31:19.820Z,86.75
2019-01-23T23:33:48.624Z,86.97
2019-01-23T23:36:17.441Z,86.95
2019-01-23T23:38:46.228Z,86.89
2019-01-23T23:41:15.078Z,87.04
2019-01-23T23:43:44.235Z,87.09
2019-01-23T23:46:13.648Z,87.08
2019-01-23T23:48:42.448Z,86.65
2019-01-23T23:51:11.391Z,87.13
2019-01-23T23:53:40.171Z,87.28
2019-01-23T23:56:08.978Z,87.22
2019-01-23T23:58:37.781Z,86.80
